< < Back
Terminal Aerodrome Forecast


Current Version              Previous Versions:   1  2  3  4  5  6  7  8  9  

Terminal Aerodrome Forecast

792
FTUS42 KFFC 301100 RRA
TAFMCN
TAF
KMCN 301143Z 3012/3112 VRB03KT P6SM BKN080
     FM301500 16005KT P6SM SCT030 BKN060 PROB30 3021/3102 6SM TSRA
      BKN045CB
     FM310200 00000KT P6SM BKN045=



Latest METAR

760
SAUS80 KWBC 301200 RRA
MTRMCN
METAR KMCN 301153Z 00000KT 10SM CLR 23/22 A3014 RMK AO2 SLP201 T02330222
10239 20211 53011


USA.gov is the U.S. government's official web portal to all federal, state and local government web resources and services.